sensor_id;sensor_type;location;lat;lon;timestamp;P1;durP1;ratioP1;P2;durP2;ratioP2
68647;SDS011;55632;51.962;16.116;2023-03-19T00:08:49;206.43;;;66.05;;
68647;SDS011;55632;51.962;16.116;2023-03-19T00:18:51;177.60;;;58.25;;
68647;SDS011;55632;51.962;16.116;2023-03-19T00:23:52;130.77;;;45.40;;
68647;SDS011;55632;51.962;16.116;2023-03-19T00:28:53;142.18;;;50.85;;
68647;SDS011;55632;51.962;16.116;2023-03-19T00:33:56;135.60;;;51.00;;
68647;SDS011;55632;51.962;16.116;2023-03-19T00:38:58;128.35;;;47.58;;
68647;SDS011;55632;51.962;16.116;2023-03-19T00:49:03;260.95;;;79.00;;
68647;SDS011;55632;51.962;16.116;2023-03-19T00:59:04;221.05;;;68.22;;
68647;SDS011;55632;51.962;16.116;2023-03-19T01:04:06;231.32;;;67.97;;
68647;SDS011;55632;51.962;16.116;2023-03-19T01:14:09;206.65;;;61.80;;
68647;SDS011;55632;51.962;16.116;2023-03-19T01:24:11;190.23;;;59.63;;
68647;SDS011;55632;51.962;16.116;2023-03-19T01:29:13;243.48;;;70.28;;
68647;SDS011;55632;51.962;16.116;2023-03-19T01:39:22;252.75;;;74.40;;
68647;SDS011;55632;51.962;16.116;2023-03-19T01:49:51;200.13;;;54.88;;
68647;SDS011;55632;51.962;16.116;2023-03-19T01:54:55;202.93;;;58.15;;
68647;SDS011;55632;51.962;16.116;2023-03-19T02:00:21;225.57;;;68.70;;
68647;SDS011;55632;51.962;16.116;2023-03-19T02:10:27;204.90;;;63.22;;
68647;SDS011;55632;51.962;16.116;2023-03-19T02:15:29;153.88;;;46.85;;
68647;SDS011;55632;51.962;16.116;2023-03-19T02:25:38;254.82;;;70.03;;
68647;SDS011;55632;51.962;16.116;2023-03-19T02:30:46;157.98;;;48.55;;
68647;SDS011;55632;51.962;16.116;2023-03-19T02:35:49;163.65;;;52.78;;
68647;SDS011;55632;51.962;16.116;2023-03-19T02:40:54;130.65;;;46.08;;
68647;SDS011;55632;51.962;16.116;2023-03-19T02:46:06;166.50;;;53.55;;
68647;SDS011;55632;51.962;16.116;2023-03-19T02:51:09;159.82;;;51.50;;
68647;SDS011;55632;51.962;16.116;2023-03-19T03:01:10;169.35;;;50.55;;
68647;SDS011;55632;51.962;16.116;2023-03-19T03:11:14;137.75;;;46.85;;
68647;SDS011;55632;51.962;16.116;2023-03-19T03:21:16;110.32;;;40.35;;
68647;SDS011;55632;51.962;16.116;2023-03-19T03:26:19;121.00;;;41.90;;
68647;SDS011;55632;51.962;16.116;2023-03-19T03:31:20;112.95;;;40.15;;
68647;SDS011;55632;51.962;16.116;2023-03-19T03:36:23;138.77;;;46.60;;
68647;SDS011;55632;51.962;16.116;2023-03-19T03:41:24;106.03;;;39.33;;
68647;SDS011;55632;51.962;16.116;2023-03-19T03:51:26;105.30;;;36.87;;
68647;SDS011;55632;51.962;16.116;2023-03-19T04:01:28;129.10;;;42.85;;
68647;SDS011;55632;51.962;16.116;2023-03-19T04:06:30;145.60;;;46.33;;
68647;SDS011;55632;51.962;16.116;2023-03-19T04:11:45;90.57;;;35.33;;
68647;SDS011;55632;51.962;16.116;2023-03-19T04:16:46;89.07;;;37.10;;
68647;SDS011;55632;51.962;16.116;2023-03-19T04:21:47;84.68;;;33.10;;
68647;SDS011;55632;51.962;16.116;2023-03-19T04:26:49;73.35;;;29.02;;
68647;SDS011;55632;51.962;16.116;2023-03-19T04:31:50;82.43;;;30.75;;
68647;SDS011;55632;51.962;16.116;2023-03-19T04:36:52;81.85;;;33.47;;
68647;SDS011;55632;51.962;16.116;2023-03-19T04:47:05;76.50;;;31.92;;
68647;SDS011;55632;51.962;16.116;2023-03-19T04:52:20;89.28;;;34.92;;
68647;SDS011;55632;51.962;16.116;2023-03-19T04:57:22;66.60;;;29.35;;
68647;SDS011;55632;51.962;16.116;2023-03-19T05:02:26;90.28;;;35.47;;
68647;SDS011;55632;51.962;16.116;2023-03-19T05:07:28;100.97;;;36.50;;
68647;SDS011;55632;51.962;16.116;2023-03-19T05:12:31;82.20;;;32.47;;
68647;SDS011;55632;51.962;16.116;2023-03-19T05:17:32;77.68;;;33.85;;
68647;SDS011;55632;51.962;16.116;2023-03-19T05:23:00;68.25;;;27.15;;
68647;SDS011;55632;51.962;16.116;2023-03-19T05:28:22;89.63;;;35.80;;
68647;SDS011;55632;51.962;16.116;2023-03-19T05:38:26;96.25;;;35.58;;
68647;SDS011;55632;51.962;16.116;2023-03-19T05:43:32;90.15;;;38.20;;
68647;SDS011;55632;51.962;16.116;2023-03-19T05:48:38;93.88;;;36.28;;
68647;SDS011;55632;51.962;16.116;2023-03-19T05:53:41;91.43;;;36.78;;
68647;SDS011;55632;51.962;16.116;2023-03-19T05:59:00;250.50;;;114.25;;
68647;SDS011;55632;51.962;16.116;2023-03-19T06:04:08;92.32;;;41.42;;
68647;SDS011;55632;51.962;16.116;2023-03-19T06:09:10;84.72;;;35.42;;
68647;SDS011;55632;51.962;16.116;2023-03-19T06:14:16;98.65;;;37.28;;
68647;SDS011;55632;51.962;16.116;2023-03-19T06:19:28;119.22;;;42.42;;
68647;SDS011;55632;51.962;16.116;2023-03-19T06:24:30;120.00;;;41.55;;
68647;SDS011;55632;51.962;16.116;2023-03-19T06:29:31;127.13;;;42.80;;
68647;SDS011;55632;51.962;16.116;2023-03-19T06:34:40;211.57;;;65.25;;
68647;SDS011;55632;51.962;16.116;2023-03-19T06:39:41;127.45;;;46.22;;
68647;SDS011;55632;51.962;16.116;2023-03-19T06:44:42;128.48;;;48.67;;
68647;SDS011;55632;51.962;16.116;2023-03-19T06:49:43;107.90;;;37.63;;
68647;SDS011;55632;51.962;16.116;2023-03-19T06:54:44;100.68;;;41.83;;
68647;SDS011;55632;51.962;16.116;2023-03-19T06:59:45;94.50;;;37.70;;
68647;SDS011;55632;51.962;16.116;2023-03-19T07:04:46;132.68;;;47.38;;
68647;SDS011;55632;51.962;16.116;2023-03-19T07:09:47;138.05;;;47.20;;
68647;SDS011;55632;51.962;16.116;2023-03-19T07:14:47;128.85;;;45.83;;
68647;SDS011;55632;51.962;16.116;2023-03-19T07:19:48;94.35;;;39.65;;
68647;SDS011;55632;51.962;16.116;2023-03-19T07:24:49;65.25;;;31.23;;
68647;SDS011;55632;51.962;16.116;2023-03-19T07:29:51;57.88;;;30.23;;
68647;SDS011;55632;51.962;16.116;2023-03-19T07:34:51;52.53;;;28.50;;
68647;SDS011;55632;51.962;16.116;2023-03-19T07:39:52;58.25;;;29.05;;
68647;SDS011;55632;51.962;16.116;2023-03-19T07:44:54;54.83;;;26.65;;
68647;SDS011;55632;51.962;16.116;2023-03-19T07:49:56;76.78;;;35.97;;
68647;SDS011;55632;51.962;16.116;2023-03-19T07:54:57;65.97;;;32.58;;
68647;SDS011;55632;51.962;16.116;2023-03-19T07:59:58;59.90;;;26.27;;
68647;SDS011;55632;51.962;16.116;2023-03-19T08:04:59;71.03;;;30.95;;
68647;SDS011;55632;51.962;16.116;2023-03-19T08:10:02;92.30;;;35.30;;
68647;SDS011;55632;51.962;16.116;2023-03-19T08:15:04;92.47;;;34.78;;
68647;SDS011;55632;51.962;16.116;2023-03-19T08:20:08;86.82;;;36.05;;
68647;SDS011;55632;51.962;16.116;2023-03-19T08:25:10;94.40;;;35.92;;
68647;SDS011;55632;51.962;16.116;2023-03-19T08:30:11;78.50;;;34.78;;
68647;SDS011;55632;51.962;16.116;2023-03-19T08:35:12;80.35;;;34.80;;
68647;SDS011;55632;51.962;16.116;2023-03-19T08:40:13;89.15;;;35.58;;
68647;SDS011;55632;51.962;16.116;2023-03-19T08:45:15;86.88;;;35.67;;
68647;SDS011;55632;51.962;16.116;2023-03-19T08:50:16;67.05;;;32.35;;
68647;SDS011;55632;51.962;16.116;2023-03-19T08:55:18;66.97;;;29.70;;
68647;SDS011;55632;51.962;16.116;2023-03-19T09:00:19;48.08;;;24.08;;
68647;SDS011;55632;51.962;16.116;2023-03-19T09:05:20;75.93;;;32.22;;
68647;SDS011;55632;51.962;16.116;2023-03-19T09:10:22;77.65;;;32.92;;
68647;SDS011;55632;51.962;16.116;2023-03-19T09:15:24;75.47;;;33.40;;
68647;SDS011;55632;51.962;16.116;2023-03-19T09:20:25;84.60;;;36.53;;
68647;SDS011;55632;51.962;16.116;2023-03-19T09:25:26;53.92;;;26.13;;
68647;SDS011;55632;51.962;16.116;2023-03-19T09:30:27;53.60;;;25.35;;
68647;SDS011;55632;51.962;16.116;2023-03-19T09:35:28;358.17;;;183.00;;
68647;SDS011;55632;51.962;16.116;2023-03-19T09:40:37;52.53;;;31.25;;
68647;SDS011;55632;51.962;16.116;2023-03-19T09:45:43;58.88;;;35.45;;
68647;SDS011;55632;51.962;16.116;2023-03-19T09:50:46;45.55;;;21.02;;
68647;SDS011;55632;51.962;16.116;2023-03-19T09:55:50;192.00;;;81.72;;
68647;SDS011;55632;51.962;16.116;2023-03-19T10:00:53;60.13;;;32.35;;
68647;SDS011;55632;51.962;16.116;2023-03-19T10:16:38;57.78;;;28.70;;
68647;SDS011;55632;51.962;16.116;2023-03-19T10:21:49;43.13;;;23.90;;
68647;SDS011;55632;51.962;16.116;2023-03-19T10:27:17;44.83;;;22.77;;
68647;SDS011;55632;51.962;16.116;2023-03-19T10:32:26;41.53;;;21.75;;
68647;SDS011;55632;51.962;16.116;2023-03-19T10:37:44;41.20;;;20.13;;
68647;SDS011;55632;51.962;16.116;2023-03-19T10:48:10;46.88;;;22.25;;
68647;SDS011;55632;51.962;16.116;2023-03-19T10:58:18;43.10;;;21.90;;
68647;SDS011;55632;51.962;16.116;2023-03-19T11:03:29;47.65;;;24.40;;
68647;SDS011;55632;51.962;16.116;2023-03-19T11:08:33;33.47;;;17.88;;
68647;SDS011;55632;51.962;16.116;2023-03-19T11:13:36;32.50;;;16.42;;
68647;SDS011;55632;51.962;16.116;2023-03-19T11:18:37;27.95;;;15.05;;
68647;SDS011;55632;51.962;16.116;2023-03-19T11:23:39;36.67;;;23.52;;
68647;SDS011;55632;51.962;16.116;2023-03-19T11:28:41;27.05;;;14.05;;
68647;SDS011;55632;51.962;16.116;2023-03-19T11:34:03;27.33;;;14.93;;
68647;SDS011;55632;51.962;16.116;2023-03-19T11:44:30;52.35;;;21.73;;
68647;SDS011;55632;51.962;16.116;2023-03-19T12:21:27;38.30;;;16.23;;
68647;SDS011;55632;51.962;16.116;2023-03-19T12:31:39;35.83;;;19.63;;
68647;SDS011;55632;51.962;16.116;2023-03-19T12:37:33;107.43;;;88.20;;
68647;SDS011;55632;51.962;16.116;2023-03-19T12:42:38;238.40;;;65.90;;
68647;SDS011;55632;51.962;16.116;2023-03-19T12:47:41;59.35;;;24.27;;
68647;SDS011;55632;51.962;16.116;2023-03-19T12:52:44;350.92;;;102.80;;
68647;SDS011;55632;51.962;16.116;2023-03-19T12:57:50;136.63;;;39.85;;
68647;SDS011;55632;51.962;16.116;2023-03-19T13:03:04;266.88;;;79.78;;
68647;SDS011;55632;51.962;16.116;2023-03-19T13:08:26;161.48;;;50.70;;
68647;SDS011;55632;51.962;16.116;2023-03-19T13:24:31;103.60;;;35.33;;
68647;SDS011;55632;51.962;16.116;2023-03-19T13:29:34;33.80;;;18.00;;
68647;SDS011;55632;51.962;16.116;2023-03-19T13:34:38;45.35;;;22.25;;
68647;SDS011;55632;51.962;16.116;2023-03-19T13:39:39;114.90;;;45.42;;
68647;SDS011;55632;51.962;16.116;2023-03-19T14:05:46;48.25;;;27.05;;
68647;SDS011;55632;51.962;16.116;2023-03-19T14:10:54;45.95;;;28.60;;
68647;SDS011;55632;51.962;16.116;2023-03-19T14:16:14;33.47;;;18.60;;
68647;SDS011;55632;51.962;16.116;2023-03-19T14:21:42;30.10;;;17.55;;
68647;SDS011;55632;51.962;16.116;2023-03-19T14:32:38;34.53;;;19.77;;
68647;SDS011;55632;51.962;16.116;2023-03-19T14:37:43;37.42;;;20.80;;
68647;SDS011;55632;51.962;16.116;2023-03-19T14:53:22;52.40;;;32.20;;
68647;SDS011;55632;51.962;16.116;2023-03-19T14:58:29;61.10;;;34.28;;
68647;SDS011;55632;51.962;16.116;2023-03-19T15:03:31;52.38;;;26.90;;
68647;SDS011;55632;51.962;16.116;2023-03-19T15:08:34;49.38;;;25.90;;
68647;SDS011;55632;51.962;16.116;2023-03-19T15:13:50;65.30;;;36.55;;
68647;SDS011;55632;51.962;16.116;2023-03-19T15:19:08;51.58;;;34.10;;
68647;SDS011;55632;51.962;16.116;2023-03-19T15:24:13;86.32;;;44.78;;
68647;SDS011;55632;51.962;16.116;2023-03-19T15:29:28;106.78;;;51.08;;
68647;SDS011;55632;51.962;16.116;2023-03-19T15:34:32;178.98;;;78.05;;
68647;SDS011;55632;51.962;16.116;2023-03-19T15:39:34;76.72;;;40.15;;
68647;SDS011;55632;51.962;16.116;2023-03-19T15:44:43;90.57;;;51.58;;
68647;SDS011;55632;51.962;16.116;2023-03-19T15:49:51;51.78;;;32.88;;
68647;SDS011;55632;51.962;16.116;2023-03-19T15:54:59;44.95;;;28.00;;
68647;SDS011;55632;51.962;16.116;2023-03-19T16:00:02;66.80;;;41.53;;
68647;SDS011;55632;51.962;16.116;2023-03-19T16:05:22;39.25;;;25.50;;
68647;SDS011;55632;51.962;16.116;2023-03-19T16:15:39;65.47;;;34.60;;
68647;SDS011;55632;51.962;16.116;2023-03-19T16:20:44;45.55;;;27.95;;
68647;SDS011;55632;51.962;16.116;2023-03-19T16:26:21;65.20;;;35.00;;
68647;SDS011;55632;51.962;16.116;2023-03-19T16:31:30;63.58;;;32.78;;
68647;SDS011;55632;51.962;16.116;2023-03-19T16:36:44;120.82;;;58.88;;
68647;SDS011;55632;51.962;16.116;2023-03-19T16:41:47;98.47;;;43.00;;
68647;SDS011;55632;51.962;16.116;2023-03-19T16:47:14;99.50;;;50.92;;
68647;SDS011;55632;51.962;16.116;2023-03-19T16:52:19;59.25;;;31.70;;
68647;SDS011;55632;51.962;16.116;2023-03-19T16:57:23;44.28;;;23.52;;
68647;SDS011;55632;51.962;16.116;2023-03-19T17:02:28;39.60;;;20.35;;
68647;SDS011;55632;51.962;16.116;2023-03-19T17:07:31;29.42;;;17.30;;
68647;SDS011;55632;51.962;16.116;2023-03-19T17:12:32;43.72;;;22.60;;
68647;SDS011;55632;51.962;16.116;2023-03-19T17:17:36;51.20;;;25.35;;
68647;SDS011;55632;51.962;16.116;2023-03-19T17:22:37;64.82;;;29.80;;
68647;SDS011;55632;51.962;16.116;2023-03-19T17:27:38;131.27;;;64.03;;
68647;SDS011;55632;51.962;16.116;2023-03-19T17:32:40;266.13;;;96.13;;
68647;SDS011;55632;51.962;16.116;2023-03-19T17:37:43;372.73;;;156.00;;
68647;SDS011;55632;51.962;16.116;2023-03-19T17:42:45;331.40;;;132.13;;
68647;SDS011;55632;51.962;16.116;2023-03-19T17:47:48;288.58;;;114.75;;
68647;SDS011;55632;51.962;16.116;2023-03-19T17:52:53;249.93;;;106.63;;
68647;SDS011;55632;51.962;16.116;2023-03-19T17:57:55;169.57;;;79.97;;
68647;SDS011;55632;51.962;16.116;2023-03-19T18:02:56;120.20;;;62.25;;
68647;SDS011;55632;51.962;16.116;2023-03-19T18:07:59;125.10;;;62.13;;
68647;SDS011;55632;51.962;16.116;2023-03-19T18:13:00;123.25;;;57.58;;
68647;SDS011;55632;51.962;16.116;2023-03-19T18:18:02;61.28;;;32.58;;
68647;SDS011;55632;51.962;16.116;2023-03-19T18:23:05;38.40;;;23.30;;
68647;SDS011;55632;51.962;16.116;2023-03-19T18:28:08;36.97;;;23.33;;
68647;SDS011;55632;51.962;16.116;2023-03-19T18:33:14;21.08;;;13.10;;
68647;SDS011;55632;51.962;16.116;2023-03-19T18:38:22;12.38;;;8.65;;
68647;SDS011;55632;51.962;16.116;2023-03-19T18:43:24;53.58;;;27.30;;
68647;SDS011;55632;51.962;16.116;2023-03-19T18:48:26;43.13;;;23.52;;
68647;SDS011;55632;51.962;16.116;2023-03-19T18:53:30;130.88;;;46.83;;
68647;SDS011;55632;51.962;16.116;2023-03-19T18:58:31;148.10;;;50.08;;
68647;SDS011;55632;51.962;16.116;2023-03-19T19:03:34;120.03;;;40.67;;
68647;SDS011;55632;51.962;16.116;2023-03-19T19:08:35;124.70;;;46.45;;
68647;SDS011;55632;51.962;16.116;2023-03-19T19:13:36;145.10;;;51.72;;
68647;SDS011;55632;51.962;16.116;2023-03-19T19:18:39;98.55;;;39.08;;
68647;SDS011;55632;51.962;16.116;2023-03-19T19:23:40;72.30;;;31.70;;
68647;SDS011;55632;51.962;16.116;2023-03-19T19:28:41;78.40;;;36.03;;
68647;SDS011;55632;51.962;16.116;2023-03-19T19:33:42;62.78;;;31.73;;
68647;SDS011;55632;51.962;16.116;2023-03-19T19:38:43;79.00;;;37.75;;
68647;SDS011;55632;51.962;16.116;2023-03-19T19:43:44;85.75;;;41.75;;
68647;SDS011;55632;51.962;16.116;2023-03-19T19:48:47;64.97;;;36.60;;
68647;SDS011;55632;51.962;16.116;2023-03-19T19:53:48;66.88;;;35.00;;
68647;SDS011;55632;51.962;16.116;2023-03-19T19:58:53;39.58;;;21.90;;
68647;SDS011;55632;51.962;16.116;2023-03-19T20:03:54;61.25;;;29.17;;
68647;SDS011;55632;51.962;16.116;2023-03-19T20:08:55;50.90;;;28.27;;
68647;SDS011;55632;51.962;16.116;2023-03-19T20:13:56;47.42;;;25.63;;
68647;SDS011;55632;51.962;16.116;2023-03-19T20:18:57;53.90;;;28.15;;
68647;SDS011;55632;51.962;16.116;2023-03-19T20:23:58;64.80;;;36.55;;
68647;SDS011;55632;51.962;16.116;2023-03-19T20:28:59;61.10;;;34.55;;
68647;SDS011;55632;51.962;16.116;2023-03-19T20:34:00;52.92;;;29.15;;
68647;SDS011;55632;51.962;16.116;2023-03-19T20:39:00;57.08;;;28.85;;
68647;SDS011;55632;51.962;16.116;2023-03-19T20:44:03;83.55;;;41.35;;
68647;SDS011;55632;51.962;16.116;2023-03-19T20:49:06;97.50;;;48.03;;
68647;SDS011;55632;51.962;16.116;2023-03-19T20:54:14;142.52;;;69.72;;
68647;SDS011;55632;51.962;16.116;2023-03-19T20:59:15;69.65;;;36.80;;
68647;SDS011;55632;51.962;16.116;2023-03-19T21:04:17;94.10;;;50.83;;
68647;SDS011;55632;51.962;16.116;2023-03-19T21:09:19;209.02;;;72.00;;
68647;SDS011;55632;51.962;16.116;2023-03-19T21:14:21;144.75;;;60.85;;
68647;SDS011;55632;51.962;16.116;2023-03-19T21:19:26;138.20;;;62.60;;
68647;SDS011;55632;51.962;16.116;2023-03-19T21:24:28;181.77;;;83.47;;
68647;SDS011;55632;51.962;16.116;2023-03-19T21:29:30;205.60;;;89.18;;
68647;SDS011;55632;51.962;16.116;2023-03-19T21:34:33;193.27;;;83.70;;
68647;SDS011;55632;51.962;16.116;2023-03-19T21:39:34;140.23;;;58.67;;
68647;SDS011;55632;51.962;16.116;2023-03-19T21:44:35;140.38;;;61.65;;
68647;SDS011;55632;51.962;16.116;2023-03-19T21:49:37;129.95;;;59.15;;
68647;SDS011;55632;51.962;16.116;2023-03-19T21:54:38;126.35;;;60.85;;
68647;SDS011;55632;51.962;16.116;2023-03-19T21:59:39;109.05;;;51.22;;
68647;SDS011;55632;51.962;16.116;2023-03-19T22:04:42;116.47;;;53.70;;
68647;SDS011;55632;51.962;16.116;2023-03-19T22:09:43;203.50;;;74.47;;
68647;SDS011;55632;51.962;16.116;2023-03-19T22:14:44;93.22;;;38.83;;
68647;SDS011;55632;51.962;16.116;2023-03-19T22:19:45;105.65;;;42.47;;
68647;SDS011;55632;51.962;16.116;2023-03-19T22:24:46;86.88;;;39.65;;
68647;SDS011;55632;51.962;16.116;2023-03-19T22:29:47;69.93;;;32.80;;
68647;SDS011;55632;51.962;16.116;2023-03-19T22:34:48;73.00;;;31.02;;
68647;SDS011;55632;51.962;16.116;2023-03-19T22:39:49;56.78;;;28.98;;
68647;SDS011;55632;51.962;16.116;2023-03-19T22:44:50;31.30;;;18.02;;
68647;SDS011;55632;51.962;16.116;2023-03-19T22:49:51;65.22;;;27.45;;
68647;SDS011;55632;51.962;16.116;2023-03-19T22:54:52;33.35;;;17.27;;
68647;SDS011;55632;51.962;16.116;2023-03-19T22:59:52;28.23;;;14.40;;
68647;SDS011;55632;51.962;16.116;2023-03-19T23:04:53;28.35;;;15.85;;
68647;SDS011;55632;51.962;16.116;2023-03-19T23:09:54;48.25;;;22.10;;
68647;SDS011;55632;51.962;16.116;2023-03-19T23:14:56;88.75;;;35.92;;
68647;SDS011;55632;51.962;16.116;2023-03-19T23:19:56;70.07;;;29.70;;
68647;SDS011;55632;51.962;16.116;2023-03-19T23:24:57;47.33;;;24.17;;
68647;SDS011;55632;51.962;16.116;2023-03-19T23:30:01;45.60;;;23.45;;
68647;SDS011;55632;51.962;16.116;2023-03-19T23:35:04;46.42;;;26.75;;
68647;SDS011;55632;51.962;16.116;2023-03-19T23:40:14;48.58;;;26.85;;
68647;SDS011;55632;51.962;16.116;2023-03-19T23:50:39;42.97;;;24.38;;
68647;SDS011;55632;51.962;16.116;2023-03-19T23:55:40;46.58;;;24.50;;
